sensor_id;sensor_type;location;lat;lon;timestamp;pressure;altitude;pressure_sealevel;temperature;humidity
5455;BME280;2750;49.050;9.250;2023-06-14T00:00:26;98293.41;;;17.78;64.54
5455;BME280;2750;49.050;9.250;2023-06-14T00:05:27;98293.34;;;17.89;64.17
5455;BME280;2750;49.050;9.250;2023-06-14T00:10:31;98291.41;;;17.91;64.32
5455;BME280;2750;49.050;9.250;2023-06-14T00:15:35;98289.00;;;17.78;64.58
5455;BME280;2750;49.050;9.250;2023-06-14T00:20:36;98293.13;;;17.60;64.77
5455;BME280;2750;49.050;9.250;2023-06-14T00:25:40;98289.81;;;17.58;65.05
5455;BME280;2750;49.050;9.250;2023-06-14T00:30:42;98293.22;;;17.70;64.65
5455;BME280;2750;49.050;9.250;2023-06-14T00:35:45;98290.97;;;17.65;64.57
5455;BME280;2750;49.050;9.250;2023-06-14T00:40:48;98295.16;;;17.56;65.16
5455;BME280;2750;49.050;9.250;2023-06-14T00:45:50;98278.97;;;17.51;65.55
5455;BME280;2750;49.050;9.250;2023-06-14T00:50:51;98278.50;;;17.46;64.87
5455;BME280;2750;49.050;9.250;2023-06-14T00:55:54;98282.97;;;17.35;66.25
5455;BME280;2750;49.050;9.250;2023-06-14T01:00:56;98279.41;;;17.04;66.61
5455;BME280;2750;49.050;9.250;2023-06-14T01:06:10;98290.06;;;17.23;65.71
5455;BME280;2750;49.050;9.250;2023-06-14T01:11:21;98285.66;;;17.24;65.99
5455;BME280;2750;49.050;9.250;2023-06-14T01:16:23;98284.13;;;17.10;68.28
5455;BME280;2750;49.050;9.250;2023-06-14T01:21:25;98289.41;;;16.99;68.28
5455;BME280;2750;49.050;9.250;2023-06-14T01:26:30;98288.28;;;16.81;67.25
5455;BME280;2750;49.050;9.250;2023-06-14T01:31:32;98298.19;;;16.66;68.11
5455;BME280;2750;49.050;9.250;2023-06-14T01:36:43;98293.25;;;15.95;70.92
5455;BME280;2750;49.050;9.250;2023-06-14T01:41:47;98297.69;;;16.05;70.27
5455;BME280;2750;49.050;9.250;2023-06-14T01:46:50;98303.06;;;16.26;69.68
5455;BME280;2750;49.050;9.250;2023-06-14T01:51:52;98309.22;;;16.14;70.16
5455;BME280;2750;49.050;9.250;2023-06-14T01:56:55;98312.81;;;16.13;69.96
5455;BME280;2750;49.050;9.250;2023-06-14T02:01:57;98303.41;;;16.10;69.46
5455;BME280;2750;49.050;9.250;2023-06-14T02:06:58;98306.25;;;15.96;70.43
5455;BME280;2750;49.050;9.250;2023-06-14T02:12:01;98313.94;;;15.75;70.59
5455;BME280;2750;49.050;9.250;2023-06-14T02:17:03;98313.03;;;16.10;69.75
5455;BME280;2750;49.050;9.250;2023-06-14T02:22:05;98313.63;;;15.56;72.51
5455;BME280;2750;49.050;9.250;2023-06-14T02:27:07;98317.66;;;15.49;72.57
5455;BME280;2750;49.050;9.250;2023-06-14T02:32:10;98314.25;;;15.60;73.21
5455;BME280;2750;49.050;9.250;2023-06-14T02:37:11;98314.91;;;15.86;71.79
5455;BME280;2750;49.050;9.250;2023-06-14T02:42:14;98327.94;;;16.09;71.34
5455;BME280;2750;49.050;9.250;2023-06-14T02:47:16;98321.13;;;15.96;70.87
5455;BME280;2750;49.050;9.250;2023-06-14T02:52:17;98322.81;;;15.62;71.25
5455;BME280;2750;49.050;9.250;2023-06-14T02:57:21;98316.91;;;15.71;70.86
5455;BME280;2750;49.050;9.250;2023-06-14T03:02:23;98322.75;;;15.74;70.66
5455;BME280;2750;49.050;9.250;2023-06-14T03:07:24;98318.06;;;15.56;71.03
5455;BME280;2750;49.050;9.250;2023-06-14T03:12:29;98327.72;;;15.43;71.83
5455;BME280;2750;49.050;9.250;2023-06-14T03:17:31;98326.06;;;15.76;71.10
5455;BME280;2750;49.050;9.250;2023-06-14T03:22:33;98329.31;;;15.91;71.22
5455;BME280;2750;49.050;9.250;2023-06-14T03:27:36;98341.91;;;15.27;72.97
5455;BME280;2750;49.050;9.250;2023-06-14T03:32:38;98334.41;;;15.82;72.56
5455;BME280;2750;49.050;9.250;2023-06-14T03:37:39;98342.09;;;16.29;71.64
5455;BME280;2750;49.050;9.250;2023-06-14T03:42:42;98339.72;;;16.93;69.18
5455;BME280;2750;49.050;9.250;2023-06-14T03:47:44;98343.41;;;17.76;66.78
5455;BME280;2750;49.050;9.250;2023-06-14T03:52:47;98345.28;;;18.57;64.93
5455;BME280;2750;49.050;9.250;2023-06-14T03:57:50;98352.63;;;19.03;64.51
5455;BME280;2750;49.050;9.250;2023-06-14T04:02:52;98367.44;;;19.14;64.01
5455;BME280;2750;49.050;9.250;2023-06-14T04:07:54;98363.25;;;19.01;64.50
5455;BME280;2750;49.050;9.250;2023-06-14T04:12:57;98369.69;;;19.18;62.57
5455;BME280;2750;49.050;9.250;2023-06-14T04:17:59;98356.34;;;21.18;59.62
5455;BME280;2750;49.050;9.250;2023-06-14T04:23:11;98361.78;;;22.57;56.88
5455;BME280;2750;49.050;9.250;2023-06-14T04:28:15;98373.69;;;23.28;55.09
5455;BME280;2750;49.050;9.250;2023-06-14T04:33:17;98375.75;;;23.01;55.35
5455;BME280;2750;49.050;9.250;2023-06-14T04:38:19;98381.34;;;21.59;58.01
5455;BME280;2750;49.050;9.250;2023-06-14T04:43:26;98381.50;;;21.93;58.11
5455;BME280;2750;49.050;9.250;2023-06-14T04:48:27;98392.44;;;21.98;57.39
5455;BME280;2750;49.050;9.250;2023-06-14T04:53:29;98390.41;;;20.75;59.90
5455;BME280;2750;49.050;9.250;2023-06-14T04:58:32;98404.91;;;20.51;61.38
5455;BME280;2750;49.050;9.250;2023-06-14T05:03:34;98399.09;;;21.22;59.76
5455;BME280;2750;49.050;9.250;2023-06-14T05:08:35;98404.41;;;21.12;59.91
5455;BME280;2750;49.050;9.250;2023-06-14T05:13:38;98410.44;;;20.95;59.96
5455;BME280;2750;49.050;9.250;2023-06-14T05:18:41;98403.84;;;21.09;59.71
5455;BME280;2750;49.050;9.250;2023-06-14T05:23:42;98406.91;;;21.59;59.30
5455;BME280;2750;49.050;9.250;2023-06-14T05:28:46;98410.19;;;21.25;59.51
5455;BME280;2750;49.050;9.250;2023-06-14T05:33:47;98411.75;;;21.18;59.85
5455;BME280;2750;49.050;9.250;2023-06-14T05:38:49;98410.28;;;20.69;60.61
5455;BME280;2750;49.050;9.250;2023-06-14T05:43:52;98428.38;;;20.91;60.42
5455;BME280;2750;49.050;9.250;2023-06-14T05:48:55;98416.13;;;21.00;60.94
5455;BME280;2750;49.050;9.250;2023-06-14T05:53:56;98422.63;;;21.15;60.27
5455;BME280;2750;49.050;9.250;2023-06-14T05:58:59;98433.09;;;21.52;60.03
5455;BME280;2750;49.050;9.250;2023-06-14T06:04:01;98424.22;;;21.71;60.07
5455;BME280;2750;49.050;9.250;2023-06-14T06:09:02;98427.50;;;21.00;60.81
5455;BME280;2750;49.050;9.250;2023-06-14T06:14:06;98428.97;;;21.22;60.44
5455;BME280;2750;49.050;9.250;2023-06-14T06:19:07;98426.22;;;20.77;61.95
5455;BME280;2750;49.050;9.250;2023-06-14T06:24:09;98430.47;;;21.25;61.42
5455;BME280;2750;49.050;9.250;2023-06-14T06:29:12;98436.16;;;21.92;59.75
5455;BME280;2750;49.050;9.250;2023-06-14T06:34:14;98442.00;;;21.96;59.96
5455;BME280;2750;49.050;9.250;2023-06-14T06:39:15;98438.19;;;22.16;59.77
5455;BME280;2750;49.050;9.250;2023-06-14T06:44:18;98443.09;;;21.76;60.51
5455;BME280;2750;49.050;9.250;2023-06-14T06:49:20;98438.03;;;21.82;60.86
5455;BME280;2750;49.050;9.250;2023-06-14T06:54:21;98452.59;;;22.83;59.25
5455;BME280;2750;49.050;9.250;2023-06-14T06:59:24;98457.22;;;22.37;59.39
5455;BME280;2750;49.050;9.250;2023-06-14T07:04:26;98462.44;;;23.32;57.44
5455;BME280;2750;49.050;9.250;2023-06-14T07:09:27;98468.47;;;22.04;59.85
5455;BME280;2750;49.050;9.250;2023-06-14T07:14:30;98467.44;;;22.76;58.29
5455;BME280;2750;49.050;9.250;2023-06-14T07:19:32;98468.41;;;23.68;56.55
5455;BME280;2750;49.050;9.250;2023-06-14T07:24:33;98482.28;;;23.28;57.93
5455;BME280;2750;49.050;9.250;2023-06-14T07:29:37;98479.34;;;23.40;57.70
5455;BME280;2750;49.050;9.250;2023-06-14T07:34:39;98485.03;;;24.03;56.34
5455;BME280;2750;49.050;9.250;2023-06-14T07:39:40;98484.78;;;23.30;57.48
5455;BME280;2750;49.050;9.250;2023-06-14T07:44:43;98489.72;;;22.91;58.22
5455;BME280;2750;49.050;9.250;2023-06-14T07:49:45;98479.94;;;24.90;55.45
5455;BME280;2750;49.050;9.250;2023-06-14T07:54:46;98496.00;;;23.58;56.57
5455;BME280;2750;49.050;9.250;2023-06-14T07:59:49;98501.25;;;24.08;55.34
5455;BME280;2750;49.050;9.250;2023-06-14T08:04:51;98494.22;;;25.44;53.83
5455;BME280;2750;49.050;9.250;2023-06-14T08:09:52;98484.09;;;24.60;55.24
5455;BME280;2750;49.050;9.250;2023-06-14T08:14:55;98495.94;;;25.21;54.00
5455;BME280;2750;49.050;9.250;2023-06-14T08:19:57;98492.53;;;24.15;55.14
5455;BME280;2750;49.050;9.250;2023-06-14T08:24:58;98497.84;;;24.48;54.15
5455;BME280;2750;49.050;9.250;2023-06-14T08:30:01;98491.69;;;24.88;54.50
5455;BME280;2750;49.050;9.250;2023-06-14T08:35:03;98488.38;;;24.69;54.58
5455;BME280;2750;49.050;9.250;2023-06-14T08:40:17;98498.00;;;24.62;54.55
5455;BME280;2750;49.050;9.250;2023-06-14T08:45:21;98486.13;;;25.30;54.08
5455;BME280;2750;49.050;9.250;2023-06-14T08:50:23;98490.38;;;25.86;52.82
5455;BME280;2750;49.050;9.250;2023-06-14T08:55:31;98500.28;;;25.22;53.71
5455;BME280;2750;49.050;9.250;2023-06-14T09:00:34;98502.31;;;24.88;53.87
5455;BME280;2750;49.050;9.250;2023-06-14T09:05:38;98497.13;;;25.96;52.60
5455;BME280;2750;49.050;9.250;2023-06-14T09:10:40;98500.69;;;25.34;53.70
5455;BME280;2750;49.050;9.250;2023-06-14T09:15:43;98508.13;;;24.51;55.66
5455;BME280;2750;49.050;9.250;2023-06-14T09:20:45;98506.47;;;24.42;55.35
5455;BME280;2750;49.050;9.250;2023-06-14T09:25:47;98506.97;;;24.29;56.14
5455;BME280;2750;49.050;9.250;2023-06-14T09:30:50;98496.63;;;25.07;53.65
5455;BME280;2750;49.050;9.250;2023-06-14T09:35:51;98489.03;;;24.96;53.91
5455;BME280;2750;49.050;9.250;2023-06-14T09:40:56;98501.16;;;24.25;54.71
5455;BME280;2750;49.050;9.250;2023-06-14T09:46:00;98505.94;;;25.66;53.30
5455;BME280;2750;49.050;9.250;2023-06-14T09:51:01;98501.53;;;25.34;51.31
5455;BME280;2750;49.050;9.250;2023-06-14T09:56:05;98501.59;;;25.65;50.38
5455;BME280;2750;49.050;9.250;2023-06-14T10:01:08;98499.34;;;24.99;49.92
5455;BME280;2750;49.050;9.250;2023-06-14T10:06:13;98495.53;;;25.48;49.14
5455;BME280;2750;49.050;9.250;2023-06-14T10:11:16;98498.81;;;26.20;47.18
5455;BME280;2750;49.050;9.250;2023-06-14T10:16:23;98490.34;;;26.16;47.28
5455;BME280;2750;49.050;9.250;2023-06-14T10:21:28;98493.44;;;26.28;47.67
5455;BME280;2750;49.050;9.250;2023-06-14T10:26:33;98497.31;;;26.17;48.05
5455;BME280;2750;49.050;9.250;2023-06-14T10:31:43;98487.47;;;27.01;46.44
5455;BME280;2750;49.050;9.250;2023-06-14T10:36:44;98498.53;;;26.75;46.61
5455;BME280;2750;49.050;9.250;2023-06-14T10:41:55;98492.88;;;25.40;46.62
5455;BME280;2750;49.050;9.250;2023-06-14T10:46:59;98488.44;;;26.02;49.04
5455;BME280;2750;49.050;9.250;2023-06-14T10:52:03;98480.31;;;27.31;45.95
5455;BME280;2750;49.050;9.250;2023-06-14T10:57:07;98478.38;;;26.58;48.97
5455;BME280;2750;49.050;9.250;2023-06-14T11:02:23;98492.00;;;26.17;49.15
5455;BME280;2750;49.050;9.250;2023-06-14T11:07:39;98477.53;;;25.89;48.79
5455;BME280;2750;49.050;9.250;2023-06-14T11:12:47;98476.88;;;26.41;47.73
5455;BME280;2750;49.050;9.250;2023-06-14T11:17:51;98480.34;;;26.41;47.25
5455;BME280;2750;49.050;9.250;2023-06-14T11:22:53;98468.16;;;26.84;46.23
5455;BME280;2750;49.050;9.250;2023-06-14T11:27:56;98474.16;;;26.86;46.87
5455;BME280;2750;49.050;9.250;2023-06-14T11:32:59;98472.63;;;28.08;44.59
5455;BME280;2750;49.050;9.250;2023-06-14T11:38:01;98474.97;;;27.31;46.61
5455;BME280;2750;49.050;9.250;2023-06-14T11:43:04;98474.69;;;25.68;48.34
5455;BME280;2750;49.050;9.250;2023-06-14T11:48:06;98475.81;;;27.46;47.02
5455;BME280;2750;49.050;9.250;2023-06-14T11:53:08;98479.56;;;27.07;46.96
5455;BME280;2750;49.050;9.250;2023-06-14T11:58:10;98470.41;;;26.12;47.80
5455;BME280;2750;49.050;9.250;2023-06-14T12:03:13;98467.44;;;25.46;49.27
5455;BME280;2750;49.050;9.250;2023-06-14T12:08:15;98459.81;;;26.50;47.25
5455;BME280;2750;49.050;9.250;2023-06-14T12:13:17;98477.25;;;26.75;47.03
5455;BME280;2750;49.050;9.250;2023-06-14T12:18:21;98468.00;;;27.30;45.93
5455;BME280;2750;49.050;9.250;2023-06-14T12:23:39;98469.59;;;26.72;46.86
5455;BME280;2750;49.050;9.250;2023-06-14T12:28:41;98466.50;;;26.83;47.44
5455;BME280;2750;49.050;9.250;2023-06-14T12:33:44;98466.50;;;26.46;48.07
5455;BME280;2750;49.050;9.250;2023-06-14T12:38:49;98470.16;;;26.68;47.82
5455;BME280;2750;49.050;9.250;2023-06-14T12:43:53;98462.91;;;27.79;46.01
5455;BME280;2750;49.050;9.250;2023-06-14T12:48:56;98465.91;;;27.90;45.65
5455;BME280;2750;49.050;9.250;2023-06-14T12:53:57;98462.94;;;26.91;47.77
5455;BME280;2750;49.050;9.250;2023-06-14T12:58:59;98471.75;;;26.08;49.26
5455;BME280;2750;49.050;9.250;2023-06-14T13:04:02;98468.56;;;25.90;48.86
5455;BME280;2750;49.050;9.250;2023-06-14T13:09:03;98469.66;;;25.73;49.13
5455;BME280;2750;49.050;9.250;2023-06-14T13:14:05;98468.94;;;25.48;49.74
5455;BME280;2750;49.050;9.250;2023-06-14T13:19:07;98475.09;;;26.56;48.16
5455;BME280;2750;49.050;9.250;2023-06-14T13:24:09;98460.28;;;27.85;45.51
5455;BME280;2750;49.050;9.250;2023-06-14T13:29:10;98459.84;;;29.70;44.32
5455;BME280;2750;49.050;9.250;2023-06-14T13:34:13;98463.53;;;30.75;43.64
5455;BME280;2750;49.050;9.250;2023-06-14T13:39:15;98475.88;;;28.45;45.76
5455;BME280;2750;49.050;9.250;2023-06-14T13:44:16;98470.03;;;27.13;46.45
5455;BME280;2750;49.050;9.250;2023-06-14T13:49:22;98463.41;;;27.24;46.95
5455;BME280;2750;49.050;9.250;2023-06-14T13:54:24;98457.69;;;27.27;46.41
5455;BME280;2750;49.050;9.250;2023-06-14T13:59:25;98460.13;;;28.29;45.26
5455;BME280;2750;49.050;9.250;2023-06-14T14:04:28;98440.28;;;29.69;43.76
5455;BME280;2750;49.050;9.250;2023-06-14T14:09:29;98440.50;;;29.74;43.54
5455;BME280;2750;49.050;9.250;2023-06-14T14:14:32;98446.41;;;30.24;43.23
5455;BME280;2750;49.050;9.250;2023-06-14T14:19:35;98426.09;;;28.59;45.14
5455;BME280;2750;49.050;9.250;2023-06-14T14:24:36;98434.28;;;29.54;45.22
5455;BME280;2750;49.050;9.250;2023-06-14T14:29:38;98439.72;;;28.98;45.96
5455;BME280;2750;49.050;9.250;2023-06-14T14:34:40;98439.16;;;30.18;43.83
5455;BME280;2750;49.050;9.250;2023-06-14T14:39:44;98451.44;;;28.21;46.24
5455;BME280;2750;49.050;9.250;2023-06-14T14:44:45;98451.91;;;27.23;47.07
5455;BME280;2750;49.050;9.250;2023-06-14T14:49:48;98461.22;;;27.13;46.42
5455;BME280;2750;49.050;9.250;2023-06-14T14:54:50;98453.53;;;29.36;44.03
5455;BME280;2750;49.050;9.250;2023-06-14T14:59:51;98464.22;;;26.95;46.45
5455;BME280;2750;49.050;9.250;2023-06-14T15:04:54;98461.19;;;27.92;44.72
5455;BME280;2750;49.050;9.250;2023-06-14T15:09:57;98457.09;;;30.37;42.84
5455;BME280;2750;49.050;9.250;2023-06-14T15:14:59;98458.41;;;30.54;42.59
5455;BME280;2750;49.050;9.250;2023-06-14T15:20:02;98449.09;;;28.81;43.96
5455;BME280;2750;49.050;9.250;2023-06-14T15:25:04;98464.63;;;28.08;45.03
5455;BME280;2750;49.050;9.250;2023-06-14T15:30:06;98449.28;;;30.16;44.34
5455;BME280;2750;49.050;9.250;2023-06-14T15:35:09;98454.31;;;29.30;46.34
5455;BME280;2750;49.050;9.250;2023-06-14T15:40:12;98448.97;;;28.68;46.90
5455;BME280;2750;49.050;9.250;2023-06-14T15:45:14;98456.88;;;27.12;46.90
5455;BME280;2750;49.050;9.250;2023-06-14T15:50:17;98459.69;;;28.26;46.40
5455;BME280;2750;49.050;9.250;2023-06-14T15:55:18;98451.00;;;28.66;46.35
5455;BME280;2750;49.050;9.250;2023-06-14T16:00:21;98452.88;;;28.93;46.89
5455;BME280;2750;49.050;9.250;2023-06-14T16:05:24;98456.41;;;28.24;47.02
5455;BME280;2750;49.050;9.250;2023-06-14T16:10:25;98442.53;;;28.90;46.32
5455;BME280;2750;49.050;9.250;2023-06-14T16:15:27;98447.81;;;28.28;46.88
5455;BME280;2750;49.050;9.250;2023-06-14T16:20:30;98455.44;;;28.80;46.73
5455;BME280;2750;49.050;9.250;2023-06-14T16:25:31;98450.19;;;28.17;47.11
5455;BME280;2750;49.050;9.250;2023-06-14T16:30:32;98451.69;;;28.75;46.81
5455;BME280;2750;49.050;9.250;2023-06-14T16:35:35;98464.41;;;28.24;46.83
5455;BME280;2750;49.050;9.250;2023-06-14T16:40:37;98453.72;;;29.01;46.29
5455;BME280;2750;49.050;9.250;2023-06-14T16:45:38;98459.53;;;29.11;45.67
5455;BME280;2750;49.050;9.250;2023-06-14T16:50:41;98448.72;;;28.91;45.77
5455;BME280;2750;49.050;9.250;2023-06-14T16:55:42;98461.56;;;28.53;46.55
5455;BME280;2750;49.050;9.250;2023-06-14T17:00:44;98467.94;;;28.73;46.49
5455;BME280;2750;49.050;9.250;2023-06-14T17:05:56;98471.84;;;28.28;46.57
5455;BME280;2750;49.050;9.250;2023-06-14T17:10:58;98486.53;;;27.82;47.64
5455;BME280;2750;49.050;9.250;2023-06-14T17:16:01;98485.53;;;28.68;46.75
5455;BME280;2750;49.050;9.250;2023-06-14T17:21:04;98486.53;;;28.88;46.37
5455;BME280;2750;49.050;9.250;2023-06-14T17:26:05;98493.63;;;27.60;47.60
5455;BME280;2750;49.050;9.250;2023-06-14T17:31:07;98497.09;;;27.75;47.71
5455;BME280;2750;49.050;9.250;2023-06-14T17:36:09;98499.56;;;28.70;45.54
5455;BME280;2750;49.050;9.250;2023-06-14T17:41:11;98500.50;;;28.62;45.85
5455;BME280;2750;49.050;9.250;2023-06-14T17:46:14;98499.16;;;29.01;45.51
5455;BME280;2750;49.050;9.250;2023-06-14T17:51:17;98504.56;;;28.79;45.43
5455;BME280;2750;49.050;9.250;2023-06-14T17:56:19;98519.13;;;28.34;46.22
5455;BME280;2750;49.050;9.250;2023-06-14T18:01:20;98524.00;;;28.10;46.66
5455;BME280;2750;49.050;9.250;2023-06-14T18:06:23;98524.59;;;28.26;46.63
5455;BME280;2750;49.050;9.250;2023-06-14T18:11:25;98527.34;;;28.75;45.79
5455;BME280;2750;49.050;9.250;2023-06-14T18:16:27;98543.50;;;28.10;46.23
5455;BME280;2750;49.050;9.250;2023-06-14T18:21:30;98533.28;;;28.14;46.62
5455;BME280;2750;49.050;9.250;2023-06-14T18:26:31;98538.72;;;26.88;47.72
5455;BME280;2750;49.050;9.250;2023-06-14T18:31:33;98543.00;;;27.27;47.98
5455;BME280;2750;49.050;9.250;2023-06-14T18:36:36;98539.88;;;27.08;48.29
5455;BME280;2750;49.050;9.250;2023-06-14T18:41:39;98542.28;;;26.04;49.11
5455;BME280;2750;49.050;9.250;2023-06-14T18:46:41;98553.56;;;25.29;50.42
5455;BME280;2750;49.050;9.250;2023-06-14T18:51:44;98551.41;;;25.24;50.94
5455;BME280;2750;49.050;9.250;2023-06-14T18:56:46;98550.09;;;25.75;50.49
5455;BME280;2750;49.050;9.250;2023-06-14T19:01:47;98563.59;;;25.49;50.79
5455;BME280;2750;49.050;9.250;2023-06-14T19:06:50;98558.19;;;25.27;51.03
5455;BME280;2750;49.050;9.250;2023-06-14T19:11:52;98560.25;;;24.84;52.12
5455;BME280;2750;49.050;9.250;2023-06-14T19:16:53;98574.16;;;24.70;52.47
5455;BME280;2750;49.050;9.250;2023-06-14T19:21:56;98577.78;;;24.61;52.68
5455;BME280;2750;49.050;9.250;2023-06-14T19:26:58;98585.41;;;24.40;52.70
5455;BME280;2750;49.050;9.250;2023-06-14T19:31:59;98584.06;;;24.27;53.53
5455;BME280;2750;49.050;9.250;2023-06-14T19:37:03;98598.31;;;24.26;53.12
5455;BME280;2750;49.050;9.250;2023-06-14T19:42:05;98604.44;;;24.27;53.89
5455;BME280;2750;49.050;9.250;2023-06-14T19:47:08;98604.44;;;24.27;53.45
5455;BME280;2750;49.050;9.250;2023-06-14T19:52:10;98613.09;;;24.29;53.54
5455;BME280;2750;49.050;9.250;2023-06-14T19:57:12;98630.72;;;24.04;53.82
5455;BME280;2750;49.050;9.250;2023-06-14T20:02:14;98621.69;;;23.89;54.04
5455;BME280;2750;49.050;9.250;2023-06-14T20:07:20;98622.03;;;23.52;54.76
5455;BME280;2750;49.050;9.250;2023-06-14T20:12:23;98632.19;;;23.65;55.17
5455;BME280;2750;49.050;9.250;2023-06-14T20:17:25;98634.38;;;23.44;55.88
5455;BME280;2750;49.050;9.250;2023-06-14T20:22:28;98639.88;;;23.50;55.48
5455;BME280;2750;49.050;9.250;2023-06-14T20:27:29;98634.03;;;23.21;56.29
5455;BME280;2750;49.050;9.250;2023-06-14T20:32:33;98639.72;;;23.08;56.49
5455;BME280;2750;49.050;9.250;2023-06-14T20:37:36;98645.31;;;23.05;56.86
5455;BME280;2750;49.050;9.250;2023-06-14T20:42:37;98642.06;;;23.11;57.90
5455;BME280;2750;49.050;9.250;2023-06-14T20:47:39;98640.78;;;22.62;59.59
5455;BME280;2750;49.050;9.250;2023-06-14T20:52:42;98641.66;;;22.08;60.38
5455;BME280;2750;49.050;9.250;2023-06-14T20:57:43;98646.06;;;22.00;60.49
5455;BME280;2750;49.050;9.250;2023-06-14T21:02:45;98647.69;;;21.64;61.20
5455;BME280;2750;49.050;9.250;2023-06-14T21:07:47;98652.44;;;21.60;61.14
5455;BME280;2750;49.050;9.250;2023-06-14T21:12:49;98660.00;;;21.26;61.90
5455;BME280;2750;49.050;9.250;2023-06-14T21:17:53;98658.91;;;21.00;62.65
5455;BME280;2750;49.050;9.250;2023-06-14T21:22:56;98650.00;;;20.91;62.86
5455;BME280;2750;49.050;9.250;2023-06-14T21:27:57;98656.66;;;20.86;63.05
5455;BME280;2750;49.050;9.250;2023-06-14T21:32:59;98657.22;;;20.80;63.13
5455;BME280;2750;49.050;9.250;2023-06-14T21:38:02;98658.63;;;20.84;62.79
5455;BME280;2750;49.050;9.250;2023-06-14T21:43:03;98658.91;;;20.62;63.89
5455;BME280;2750;49.050;9.250;2023-06-14T21:48:05;98662.78;;;20.77;63.31
5455;BME280;2750;49.050;9.250;2023-06-14T21:53:09;98667.22;;;20.57;63.19
5455;BME280;2750;49.050;9.250;2023-06-14T21:58:10;98673.31;;;20.58;62.87
5455;BME280;2750;49.050;9.250;2023-06-14T22:03:12;98672.78;;;21.02;61.51
5455;BME280;2750;49.050;9.250;2023-06-14T22:08:14;98677.25;;;21.11;61.31
5455;BME280;2750;49.050;9.250;2023-06-14T22:13:16;98669.88;;;20.95;61.04
5455;BME280;2750;49.050;9.250;2023-06-14T22:18:18;98672.22;;;20.89;61.79
5455;BME280;2750;49.050;9.250;2023-06-14T22:23:22;98678.88;;;20.93;61.76
5455;BME280;2750;49.050;9.250;2023-06-14T22:28:26;98674.72;;;20.71;62.02
5455;BME280;2750;49.050;9.250;2023-06-14T22:33:27;98679.25;;;20.40;63.34
5455;BME280;2750;49.050;9.250;2023-06-14T22:38:30;98685.13;;;20.54;62.99
5455;BME280;2750;49.050;9.250;2023-06-14T22:43:32;98680.25;;;20.49;63.02
5455;BME280;2750;49.050;9.250;2023-06-14T22:48:35;98687.06;;;20.71;62.54
5455;BME280;2750;49.050;9.250;2023-06-14T22:53:46;98685.50;;;20.49;62.62
5455;BME280;2750;49.050;9.250;2023-06-14T22:58:47;98688.13;;;20.39;63.12
5455;BME280;2750;49.050;9.250;2023-06-14T23:03:49;98692.22;;;20.82;62.15
5455;BME280;2750;49.050;9.250;2023-06-14T23:08:52;98692.63;;;20.87;62.42
5455;BME280;2750;49.050;9.250;2023-06-14T23:13:56;98691.94;;;20.66;62.89
5455;BME280;2750;49.050;9.250;2023-06-14T23:18:58;98695.13;;;20.79;62.76
5455;BME280;2750;49.050;9.250;2023-06-14T23:24:01;98704.47;;;20.92;62.03
5455;BME280;2750;49.050;9.250;2023-06-14T23:29:03;98690.84;;;20.87;62.08
5455;BME280;2750;49.050;9.250;2023-06-14T23:34:04;98701.25;;;20.79;62.96
5455;BME280;2750;49.050;9.250;2023-06-14T23:39:07;98690.50;;;20.52;63.17
5455;BME280;2750;49.050;9.250;2023-06-14T23:44:08;98693.75;;;20.65;62.66
5455;BME280;2750;49.050;9.250;2023-06-14T23:49:10;98704.13;;;20.57;62.75
5455;BME280;2750;49.050;9.250;2023-06-14T23:54:13;98705.22;;;20.55;63.74
5455;BME280;2750;49.050;9.250;2023-06-14T23:59:17;98701.47;;;20.47;63.37
